Airfield :
LOGIN :

Register | Disclaimer

   EN    FR    IT 

 










Legend :    VFR   Marginal VFR   IFR   Intensive IFR   Very Intensive IFR
Visi :
Ceiling :
>= 8 km
>= 3000ft
5 to 8 km
1000 to 3000 ft
1500m to 5 km
500 to 1000 ft
800 to 1500m
200 to 500 ft
< 800m
< 200 ft
Symbols :   Thunderstorms  Fog  Heavy snow  Heavy precipitations  Wind > 20 kt
SIGMETs :     Misc.  Thunderstorms  Icing  Turbulence  Mountain Waves  Volcanic Ashes






- Airport Elevation : 424 ft
- IATA code : QGY


LHPR - Györ Per

CURRENT METAR :
  • 201545Z AUTO 12006KT 070V150 9999 BKN043 //////CB 25/16 Q1010 NOSIG

EXPIRED METARs :
  • 201515Z AUTO 11004KT 020V160 9999 BKN049 //////TCU 25/15 Q1010 TEMPO VRB15KT 8000 -SHRA FEW030CB BKN050
  • 201445Z AUTO 07003KT 010V120 9999 //////CB 24/14 Q1010 TEMPO VRB20G30KT 4000 TSRA SHRA SCT040CB BKN070
  • 201415Z AUTO VRB04KT 9999 //////CB 24/16 Q1010 TEMPO VRB22G32KT 4000 TSRA SCT030CB BKN045
  • 201345Z AUTO VRB02KT 9999 -SHRA //////CB 22/15 Q1011 TEMPO VRB22G32KT 4000 TSRA SCT030CB BKN045
  • 201315Z AUTO 15006KT 9999 -SHRA VCTS SCT042 //////CB 22/15 Q1011 TEMPO VRB22G32KT 4000 TSRA SCT030CB BKN045
  • 201245Z AUTO 15010KT 9999 SCT027 //////CB 24/15 Q1011 TEMPO VRB22G32KT 4000 TSRA SCT030CB BKN045
  • 201215Z AUTO 14008KT 100V170 9999 VCTS BKN039 //////CB 25/15 Q1012 TEMPO VRB22G32KT 4000 TSRA SCT030CB BKN045
  • 201145Z AUTO VRB05KT 9999 VCTS FEW039 //////CB 25/16 Q1012 TEMPO VRB22G34KT 4000 TSRAGR SCT030CB BKN070
  • 201115Z AUTO VRB04KT 9999 FEW039 //////CB 25/14 Q1012 TEMPO VCTS

TAF TAF LHPR
Valid from the 20 at 15:00 until the 21 at 00:00 UTC


201415Z 2015/2024 14008KT CAVOK
TEMPO 2015/2020 VRB20G30KT 4000 TSRA SHRA SCT040CB BKN070
PROB30
TEMPO 2015/2018 TSRAGR BKN040CB BKN060



MET'MAP, your aeronautical weather chart ! - Copyright ORBIFLY December 2007 - Disclaimer

ORBIFLY MET'MAP TEAM :

Programming & Development : Alexandra Zaïnal
Original concept : Baudouin d'Aumeries
Technical & hardware support : Manuel Goepfert
Assistance : Marc-Olivier Méhu




SOURCES & CREDITS :

   NOAA